sensor_id;sensor_type;location;lat;lon;timestamp;temperature;humidity
5055;DHT22;13829;48.990;8.346;2023-03-01T00:01:00;1.20;99.50
5055;DHT22;13829;48.990;8.346;2023-03-01T00:03:28;1.10;99.60
5055;DHT22;13829;48.990;8.346;2023-03-01T00:05:56;1.10;99.60
5055;DHT22;13829;48.990;8.346;2023-03-01T00:08:23;1.00;99.70
5055;DHT22;13829;48.990;8.346;2023-03-01T00:11:00;1.00;99.80
5055;DHT22;13829;48.990;8.346;2023-03-01T00:13:28;1.10;99.80
5055;DHT22;13829;48.990;8.346;2023-03-01T00:15:55;1.10;99.80
5055;DHT22;13829;48.990;8.346;2023-03-01T00:18:22;1.00;99.90
5055;DHT22;13829;48.990;8.346;2023-03-01T00:20:50;0.90;99.90
5055;DHT22;13829;48.990;8.346;2023-03-01T00:23:19;0.80;99.90
5055;DHT22;13829;48.990;8.346;2023-03-01T00:25:46;0.90;99.90
5055;DHT22;13829;48.990;8.346;2023-03-01T00:28:13;0.80;99.90
5055;DHT22;13829;48.990;8.346;2023-03-01T00:30:41;0.90;99.90
5055;DHT22;13829;48.990;8.346;2023-03-01T00:33:08;0.90;99.90
5055;DHT22;13829;48.990;8.346;2023-03-01T00:35:35;0.80;99.90
5055;DHT22;13829;48.990;8.346;2023-03-01T00:38:03;0.80;99.90
5055;DHT22;13829;48.990;8.346;2023-03-01T00:40:33;0.80;99.90
5055;DHT22;13829;48.990;8.346;2023-03-01T00:43:02;0.80;99.90
5055;DHT22;13829;48.990;8.346;2023-03-01T00:45:30;0.80;99.90
5055;DHT22;13829;48.990;8.346;2023-03-01T00:47:57;0.80;99.90
5055;DHT22;13829;48.990;8.346;2023-03-01T00:50:25;0.80;99.90
5055;DHT22;13829;48.990;8.346;2023-03-01T00:52:53;0.70;99.90
5055;DHT22;13829;48.990;8.346;2023-03-01T00:55:20;0.70;99.90
5055;DHT22;13829;48.990;8.346;2023-03-01T00:57:49;0.70;99.90
5055;DHT22;13829;48.990;8.346;2023-03-01T01:00:17;0.70;99.90
5055;DHT22;13829;48.990;8.346;2023-03-01T01:02:45;0.70;99.90
5055;DHT22;13829;48.990;8.346;2023-03-01T01:05:12;0.70;99.90
5055;DHT22;13829;48.990;8.346;2023-03-01T01:07:39;0.80;99.90
5055;DHT22;13829;48.990;8.346;2023-03-01T01:10:07;0.70;99.90
5055;DHT22;13829;48.990;8.346;2023-03-01T01:12:42;0.70;99.90
5055;DHT22;13829;48.990;8.346;2023-03-01T01:15:12;0.90;99.90
5055;DHT22;13829;48.990;8.346;2023-03-01T01:17:42;0.80;99.90
5055;DHT22;13829;48.990;8.346;2023-03-01T01:20:10;0.70;99.90
5055;DHT22;13829;48.990;8.346;2023-03-01T01:22:38;0.70;99.90
5055;DHT22;13829;48.990;8.346;2023-03-01T01:25:05;0.70;99.90
5055;DHT22;13829;48.990;8.346;2023-03-01T01:27:33;0.80;99.90
5055;DHT22;13829;48.990;8.346;2023-03-01T01:30:00;0.70;99.90
5055;DHT22;13829;48.990;8.346;2023-03-01T01:32:28;0.80;99.90
5055;DHT22;13829;48.990;8.346;2023-03-01T01:34:56;0.80;99.90
5055;DHT22;13829;48.990;8.346;2023-03-01T01:37:23;0.70;99.90
5055;DHT22;13829;48.990;8.346;2023-03-01T01:39:56;0.70;99.90
5055;DHT22;13829;48.990;8.346;2023-03-01T01:42:23;0.70;99.90
5055;DHT22;13829;48.990;8.346;2023-03-01T01:47:56;0.70;99.90
5055;DHT22;13829;48.990;8.346;2023-03-01T01:50:27;0.60;99.90
5055;DHT22;13829;48.990;8.346;2023-03-01T01:53:09;0.60;99.90
5055;DHT22;13829;48.990;8.346;2023-03-01T01:55:41;0.70;99.90
5055;DHT22;13829;48.990;8.346;2023-03-01T01:58:12;0.70;99.90
5055;DHT22;13829;48.990;8.346;2023-03-01T02:00:42;0.70;99.90
5055;DHT22;13829;48.990;8.346;2023-03-01T02:03:12;0.80;99.90
5055;DHT22;13829;48.990;8.346;2023-03-01T02:05:47;0.70;99.90
5055;DHT22;13829;48.990;8.346;2023-03-01T02:08:19;0.70;99.90
5055;DHT22;13829;48.990;8.346;2023-03-01T02:10:49;0.70;99.90
5055;DHT22;13829;48.990;8.346;2023-03-01T02:13:18;0.70;99.90
5055;DHT22;13829;48.990;8.346;2023-03-01T02:15:45;0.70;99.90
5055;DHT22;13829;48.990;8.346;2023-03-01T02:18:17;0.70;99.90
5055;DHT22;13829;48.990;8.346;2023-03-01T02:20:56;0.70;99.90
5055;DHT22;13829;48.990;8.346;2023-03-01T02:23:36;0.60;99.90
5055;DHT22;13829;48.990;8.346;2023-03-01T02:26:09;0.70;99.90
5055;DHT22;13829;48.990;8.346;2023-03-01T02:28:44;0.60;99.90
5055;DHT22;13829;48.990;8.346;2023-03-01T02:31:15;0.60;99.90
5055;DHT22;13829;48.990;8.346;2023-03-01T02:34:02;0.60;99.90
5055;DHT22;13829;48.990;8.346;2023-03-01T02:36:32;0.60;99.90
5055;DHT22;13829;48.990;8.346;2023-03-01T02:39:04;0.60;99.90
5055;DHT22;13829;48.990;8.346;2023-03-01T02:41:35;0.60;99.90
5055;DHT22;13829;48.990;8.346;2023-03-01T02:44:05;0.60;99.90
5055;DHT22;13829;48.990;8.346;2023-03-01T02:46:34;0.60;99.90
5055;DHT22;13829;48.990;8.346;2023-03-01T02:49:19;0.60;99.90
5055;DHT22;13829;48.990;8.346;2023-03-01T02:51:56;0.50;99.90
5055;DHT22;13829;48.990;8.346;2023-03-01T02:54:46;0.50;99.90
5055;DHT22;13829;48.990;8.346;2023-03-01T02:57:17;0.50;99.90
5055;DHT22;13829;48.990;8.346;2023-03-01T02:59:50;0.50;99.90
5055;DHT22;13829;48.990;8.346;2023-03-01T03:02:20;0.40;99.90
5055;DHT22;13829;48.990;8.346;2023-03-01T03:05:02;0.30;99.90
5055;DHT22;13829;48.990;8.346;2023-03-01T03:07:32;0.30;99.90
5055;DHT22;13829;48.990;8.346;2023-03-01T03:10:00;0.30;99.90
5055;DHT22;13829;48.990;8.346;2023-03-01T03:12:28;0.20;99.90
5055;DHT22;13829;48.990;8.346;2023-03-01T03:14:57;0.20;99.90
5055;DHT22;13829;48.990;8.346;2023-03-01T03:17:24;0.20;99.90
5055;DHT22;13829;48.990;8.346;2023-03-01T03:19:51;0.20;99.90
5055;DHT22;13829;48.990;8.346;2023-03-01T03:22:18;0.20;99.90
5055;DHT22;13829;48.990;8.346;2023-03-01T03:24:44;0.20;99.90
5055;DHT22;13829;48.990;8.346;2023-03-01T03:27:11;0.20;99.90
5055;DHT22;13829;48.990;8.346;2023-03-01T03:29:38;0.20;99.90
5055;DHT22;13829;48.990;8.346;2023-03-01T03:32:06;0.20;99.90
5055;DHT22;13829;48.990;8.346;2023-03-01T03:34:33;0.20;99.90
5055;DHT22;13829;48.990;8.346;2023-03-01T03:37:00;0.30;99.90
5055;DHT22;13829;48.990;8.346;2023-03-01T03:39:28;0.30;99.90
5055;DHT22;13829;48.990;8.346;2023-03-01T03:42:00;0.20;99.90
5055;DHT22;13829;48.990;8.346;2023-03-01T03:44:27;0.20;99.90
5055;DHT22;13829;48.990;8.346;2023-03-01T03:46:54;0.20;99.90
5055;DHT22;13829;48.990;8.346;2023-03-01T03:49:23;0.10;99.90
5055;DHT22;13829;48.990;8.346;2023-03-01T03:51:50;0.10;99.90
5055;DHT22;13829;48.990;8.346;2023-03-01T03:54:17;0.20;99.90
5055;DHT22;13829;48.990;8.346;2023-03-01T03:56:43;0.20;99.90
5055;DHT22;13829;48.990;8.346;2023-03-01T03:59:10;0.10;99.90
5055;DHT22;13829;48.990;8.346;2023-03-01T04:01:37;0.10;99.90
5055;DHT22;13829;48.990;8.346;2023-03-01T04:04:04;0.20;99.90
5055;DHT22;13829;48.990;8.346;2023-03-01T04:06:34;0.10;99.90
5055;DHT22;13829;48.990;8.346;2023-03-01T04:09:01;0.10;99.90
5055;DHT22;13829;48.990;8.346;2023-03-01T04:11:28;0.10;99.90
5055;DHT22;13829;48.990;8.346;2023-03-01T04:13:57;0.00;99.90
5055;DHT22;13829;48.990;8.346;2023-03-01T04:16:25;-0.10;99.90
5055;DHT22;13829;48.990;8.346;2023-03-01T04:18:52;0.00;99.90
5055;DHT22;13829;48.990;8.346;2023-03-01T04:21:20;0.00;99.90
5055;DHT22;13829;48.990;8.346;2023-03-01T04:23:48;0.00;99.90
5055;DHT22;13829;48.990;8.346;2023-03-01T04:26:18;0.10;99.90
5055;DHT22;13829;48.990;8.346;2023-03-01T04:28:45;0.00;99.90
5055;DHT22;13829;48.990;8.346;2023-03-01T04:31:16;0.00;99.90
5055;DHT22;13829;48.990;8.346;2023-03-01T04:33:47;0.10;99.90
5055;DHT22;13829;48.990;8.346;2023-03-01T04:36:17;0.00;99.90
5055;DHT22;13829;48.990;8.346;2023-03-01T04:38:46;0.00;99.90
5055;DHT22;13829;48.990;8.346;2023-03-01T04:41:17;0.00;99.90
5055;DHT22;13829;48.990;8.346;2023-03-01T04:43:45;0.00;99.90
5055;DHT22;13829;48.990;8.346;2023-03-01T04:46:15;0.00;99.90
5055;DHT22;13829;48.990;8.346;2023-03-01T04:48:44;0.10;99.90
5055;DHT22;13829;48.990;8.346;2023-03-01T04:51:12;0.00;99.90
5055;DHT22;13829;48.990;8.346;2023-03-01T04:53:40;0.00;99.90
5055;DHT22;13829;48.990;8.346;2023-03-01T04:56:08;-0.10;99.90
5055;DHT22;13829;48.990;8.346;2023-03-01T04:58:37;0.00;99.90
5055;DHT22;13829;48.990;8.346;2023-03-01T05:01:08;0.00;99.90
5055;DHT22;13829;48.990;8.346;2023-03-01T05:03:40;-0.10;99.90
5055;DHT22;13829;48.990;8.346;2023-03-01T05:06:09;-0.10;99.90
5055;DHT22;13829;48.990;8.346;2023-03-01T05:08:37;-0.10;99.90
5055;DHT22;13829;48.990;8.346;2023-03-01T05:11:05;-0.20;99.90
5055;DHT22;13829;48.990;8.346;2023-03-01T05:13:35;-0.10;99.90
5055;DHT22;13829;48.990;8.346;2023-03-01T05:16:05;-0.20;99.90
5055;DHT22;13829;48.990;8.346;2023-03-01T05:18:36;-0.20;99.90
5055;DHT22;13829;48.990;8.346;2023-03-01T05:21:06;-0.20;99.90
5055;DHT22;13829;48.990;8.346;2023-03-01T05:23:34;-0.30;99.90
5055;DHT22;13829;48.990;8.346;2023-03-01T05:26:02;-0.30;99.90
5055;DHT22;13829;48.990;8.346;2023-03-01T05:28:31;-0.10;99.90
5055;DHT22;13829;48.990;8.346;2023-03-01T05:31:00;-0.10;99.90
5055;DHT22;13829;48.990;8.346;2023-03-01T05:33:27;-0.20;99.90
5055;DHT22;13829;48.990;8.346;2023-03-01T05:35:54;-0.20;99.90
5055;DHT22;13829;48.990;8.346;2023-03-01T05:38:21;-0.20;99.90
5055;DHT22;13829;48.990;8.346;2023-03-01T05:40:49;-0.20;99.90
5055;DHT22;13829;48.990;8.346;2023-03-01T05:43:17;-0.20;99.90
5055;DHT22;13829;48.990;8.346;2023-03-01T05:45:44;-0.20;99.90
5055;DHT22;13829;48.990;8.346;2023-03-01T05:48:13;-0.20;99.90
5055;DHT22;13829;48.990;8.346;2023-03-01T05:50:42;-0.20;99.90
5055;DHT22;13829;48.990;8.346;2023-03-01T05:53:12;-0.20;99.90
5055;DHT22;13829;48.990;8.346;2023-03-01T05:55:41;-0.30;99.90
5055;DHT22;13829;48.990;8.346;2023-03-01T05:58:11;-0.20;99.90
5055;DHT22;13829;48.990;8.346;2023-03-01T06:00:40;-0.30;99.90
5055;DHT22;13829;48.990;8.346;2023-03-01T06:03:10;-0.30;99.90
5055;DHT22;13829;48.990;8.346;2023-03-01T06:05:40;-0.30;99.90
5055;DHT22;13829;48.990;8.346;2023-03-01T06:08:09;-0.30;99.90
5055;DHT22;13829;48.990;8.346;2023-03-01T06:10:37;-0.30;99.90
5055;DHT22;13829;48.990;8.346;2023-03-01T06:13:05;-0.40;99.90
5055;DHT22;13829;48.990;8.346;2023-03-01T06:15:32;-0.40;99.90
5055;DHT22;13829;48.990;8.346;2023-03-01T06:17:59;-0.40;99.90
5055;DHT22;13829;48.990;8.346;2023-03-01T06:20:28;-0.40;99.90
5055;DHT22;13829;48.990;8.346;2023-03-01T06:22:56;-0.40;99.90
5055;DHT22;13829;48.990;8.346;2023-03-01T06:25:26;-0.50;99.90
5055;DHT22;13829;48.990;8.346;2023-03-01T06:27:53;-0.50;99.90
5055;DHT22;13829;48.990;8.346;2023-03-01T06:30:22;-0.30;99.90
5055;DHT22;13829;48.990;8.346;2023-03-01T06:32:50;-0.30;99.90
5055;DHT22;13829;48.990;8.346;2023-03-01T06:35:19;-0.40;99.90
5055;DHT22;13829;48.990;8.346;2023-03-01T06:37:47;-0.30;99.90
5055;DHT22;13829;48.990;8.346;2023-03-01T06:40:16;-0.30;99.90
5055;DHT22;13829;48.990;8.346;2023-03-01T06:42:47;-0.30;99.90
5055;DHT22;13829;48.990;8.346;2023-03-01T06:45:17;-0.20;99.90
5055;DHT22;13829;48.990;8.346;2023-03-01T06:47:45;-0.20;99.90
5055;DHT22;13829;48.990;8.346;2023-03-01T06:50:13;-0.20;99.90
5055;DHT22;13829;48.990;8.346;2023-03-01T06:52:40;-0.20;99.90
5055;DHT22;13829;48.990;8.346;2023-03-01T06:55:09;-0.20;99.90
5055;DHT22;13829;48.990;8.346;2023-03-01T06:57:38;-0.10;99.90
5055;DHT22;13829;48.990;8.346;2023-03-01T07:00:06;-0.10;99.90
5055;DHT22;13829;48.990;8.346;2023-03-01T07:02:33;0.00;99.90
5055;DHT22;13829;48.990;8.346;2023-03-01T07:05:00;0.10;99.90
5055;DHT22;13829;48.990;8.346;2023-03-01T07:07:27;0.10;99.90
5055;DHT22;13829;48.990;8.346;2023-03-01T07:09:54;0.10;99.90
5055;DHT22;13829;48.990;8.346;2023-03-01T07:12:21;0.20;99.90
5055;DHT22;13829;48.990;8.346;2023-03-01T07:14:49;0.30;99.90
5055;DHT22;13829;48.990;8.346;2023-03-01T07:17:16;0.40;99.90
5055;DHT22;13829;48.990;8.346;2023-03-01T07:19:44;0.70;99.90
5055;DHT22;13829;48.990;8.346;2023-03-01T07:22:11;1.70;99.90
5055;DHT22;13829;48.990;8.346;2023-03-01T07:24:38;2.70;99.50
5055;DHT22;13829;48.990;8.346;2023-03-01T07:27:05;3.50;97.80
5055;DHT22;13829;48.990;8.346;2023-03-01T07:29:32;3.90;96.70
5055;DHT22;13829;48.990;8.346;2023-03-01T07:32:03;4.30;96.00
5055;DHT22;13829;48.990;8.346;2023-03-01T07:34:31;4.90;94.60
5055;DHT22;13829;48.990;8.346;2023-03-01T07:36:58;5.20;93.70
5055;DHT22;13829;48.990;8.346;2023-03-01T07:39:25;5.40;92.60
5055;DHT22;13829;48.990;8.346;2023-03-01T07:41:52;5.60;92.20
5055;DHT22;13829;48.990;8.346;2023-03-01T07:44:19;6.10;91.70
5055;DHT22;13829;48.990;8.346;2023-03-01T07:46:46;6.00;90.50
5055;DHT22;13829;48.990;8.346;2023-03-01T07:49:14;6.00;90.70
5055;DHT22;13829;48.990;8.346;2023-03-01T07:51:43;6.50;89.70
5055;DHT22;13829;48.990;8.346;2023-03-01T07:54:10;6.30;90.10
5055;DHT22;13829;48.990;8.346;2023-03-01T07:56:36;6.50;89.80
5055;DHT22;13829;48.990;8.346;2023-03-01T07:59:03;6.90;87.10
5055;DHT22;13829;48.990;8.346;2023-03-01T08:01:30;7.50;86.10
5055;DHT22;13829;48.990;8.346;2023-03-01T08:03:57;7.10;84.60
5055;DHT22;13829;48.990;8.346;2023-03-01T08:06:26;7.50;82.90
5055;DHT22;13829;48.990;8.346;2023-03-01T08:08:53;7.40;83.10
5055;DHT22;13829;48.990;8.346;2023-03-01T08:11:21;7.40;81.90
5055;DHT22;13829;48.990;8.346;2023-03-01T08:13:48;7.60;81.70
5055;DHT22;13829;48.990;8.346;2023-03-01T08:16:16;7.60;82.00
5055;DHT22;13829;48.990;8.346;2023-03-01T08:18:43;7.10;80.10
5055;DHT22;13829;48.990;8.346;2023-03-01T08:21:12;7.00;82.60
5055;DHT22;13829;48.990;8.346;2023-03-01T08:23:42;6.20;84.10
5055;DHT22;13829;48.990;8.346;2023-03-01T08:26:11;5.30;87.40
5055;DHT22;13829;48.990;8.346;2023-03-01T08:28:40;4.80;90.20
5055;DHT22;13829;48.990;8.346;2023-03-01T08:31:16;4.40;91.30
5055;DHT22;13829;48.990;8.346;2023-03-01T08:33:45;4.30;92.10
5055;DHT22;13829;48.990;8.346;2023-03-01T08:36:16;4.10;92.40
5055;DHT22;13829;48.990;8.346;2023-03-01T08:38:44;3.80;93.10
5055;DHT22;13829;48.990;8.346;2023-03-01T08:41:11;3.60;94.10
5055;DHT22;13829;48.990;8.346;2023-03-01T08:43:38;3.60;94.20
5055;DHT22;13829;48.990;8.346;2023-03-01T08:46:05;3.50;94.50
5055;DHT22;13829;48.990;8.346;2023-03-01T08:48:32;3.40;94.90
5055;DHT22;13829;48.990;8.346;2023-03-01T08:51:07;3.20;95.30
5055;DHT22;13829;48.990;8.346;2023-03-01T08:53:34;3.20;95.40
5055;DHT22;13829;48.990;8.346;2023-03-01T08:56:03;3.00;95.60
5055;DHT22;13829;48.990;8.346;2023-03-01T08:58:31;3.10;96.10
5055;DHT22;13829;48.990;8.346;2023-03-01T09:00:58;3.20;96.10
5055;DHT22;13829;48.990;8.346;2023-03-01T09:03:26;3.20;95.90
5055;DHT22;13829;48.990;8.346;2023-03-01T09:05:59;3.20;96.10
5055;DHT22;13829;48.990;8.346;2023-03-01T09:08:27;3.20;96.30
5055;DHT22;13829;48.990;8.346;2023-03-01T09:10:54;3.20;96.20
5055;DHT22;13829;48.990;8.346;2023-03-01T09:13:23;3.20;96.20
5055;DHT22;13829;48.990;8.346;2023-03-01T09:15:51;3.00;96.70
5055;DHT22;13829;48.990;8.346;2023-03-01T09:18:18;3.10;96.70
5055;DHT22;13829;48.990;8.346;2023-03-01T09:20:45;3.10;96.60
5055;DHT22;13829;48.990;8.346;2023-03-01T09:23:12;3.10;96.50
5055;DHT22;13829;48.990;8.346;2023-03-01T09:25:41;3.10;96.70
5055;DHT22;13829;48.990;8.346;2023-03-01T09:28:08;3.20;96.60
5055;DHT22;13829;48.990;8.346;2023-03-01T09:30:37;3.20;96.70
5055;DHT22;13829;48.990;8.346;2023-03-01T09:33:04;3.20;96.60
5055;DHT22;13829;48.990;8.346;2023-03-01T09:35:33;3.30;96.50
5055;DHT22;13829;48.990;8.346;2023-03-01T09:38:00;3.30;96.70
5055;DHT22;13829;48.990;8.346;2023-03-01T09:40:29;3.40;96.70
5055;DHT22;13829;48.990;8.346;2023-03-01T09:43:04;3.50;96.50
5055;DHT22;13829;48.990;8.346;2023-03-01T09:45:41;3.60;96.30
5055;DHT22;13829;48.990;8.346;2023-03-01T09:48:16;3.70;96.20
5055;DHT22;13829;48.990;8.346;2023-03-01T09:50:47;3.70;96.10
5055;DHT22;13829;48.990;8.346;2023-03-01T09:53:16;3.70;96.20
5055;DHT22;13829;48.990;8.346;2023-03-01T09:55:48;3.80;96.20
5055;DHT22;13829;48.990;8.346;2023-03-01T09:58:37;3.80;96.30
5055;DHT22;13829;48.990;8.346;2023-03-01T10:01:26;3.80;96.00
5055;DHT22;13829;48.990;8.346;2023-03-01T10:04:09;3.90;96.10
5055;DHT22;13829;48.990;8.346;2023-03-01T10:06:51;3.90;95.90
5055;DHT22;13829;48.990;8.346;2023-03-01T10:09:33;4.00;95.70
5055;DHT22;13829;48.990;8.346;2023-03-01T10:12:02;4.10;95.50
5055;DHT22;13829;48.990;8.346;2023-03-01T10:14:38;4.20;95.60
5055;DHT22;13829;48.990;8.346;2023-03-01T10:17:19;4.30;95.40
5055;DHT22;13829;48.990;8.346;2023-03-01T10:19:51;4.20;95.40
5055;DHT22;13829;48.990;8.346;2023-03-01T10:22:21;4.40;95.60
5055;DHT22;13829;48.990;8.346;2023-03-01T10:24:52;4.50;94.80
5055;DHT22;13829;48.990;8.346;2023-03-01T10:27:23;4.30;94.90
5055;DHT22;13829;48.990;8.346;2023-03-01T10:29:58;4.30;95.30
5055;DHT22;13829;48.990;8.346;2023-03-01T10:32:34;4.40;95.20
5055;DHT22;13829;48.990;8.346;2023-03-01T10:35:04;4.60;95.00
5055;DHT22;13829;48.990;8.346;2023-03-01T10:37:57;4.70;94.60
5055;DHT22;13829;48.990;8.346;2023-03-01T10:40:24;4.80;94.40
5055;DHT22;13829;48.990;8.346;2023-03-01T10:42:51;4.80;94.20
5055;DHT22;13829;48.990;8.346;2023-03-01T10:45:31;4.80;94.30
5055;DHT22;13829;48.990;8.346;2023-03-01T10:48:08;4.90;93.90
5055;DHT22;13829;48.990;8.346;2023-03-01T10:50:40;5.00;94.10
5055;DHT22;13829;48.990;8.346;2023-03-01T10:53:21;5.10;93.90
5055;DHT22;13829;48.990;8.346;2023-03-01T10:55:57;5.20;93.90
5055;DHT22;13829;48.990;8.346;2023-03-01T10:58:27;5.20;93.50
5055;DHT22;13829;48.990;8.346;2023-03-01T11:00:56;5.10;93.50
5055;DHT22;13829;48.990;8.346;2023-03-01T11:03:27;5.10;93.20
5055;DHT22;13829;48.990;8.346;2023-03-01T11:06:03;5.10;93.30
5055;DHT22;13829;48.990;8.346;2023-03-01T11:08:40;5.20;93.50
5055;DHT22;13829;48.990;8.346;2023-03-01T11:11:24;5.30;93.10
5055;DHT22;13829;48.990;8.346;2023-03-01T11:13:58;5.20;93.00
5055;DHT22;13829;48.990;8.346;2023-03-01T11:16:30;5.30;93.00
5055;DHT22;13829;48.990;8.346;2023-03-01T11:19:15;5.40;92.90
5055;DHT22;13829;48.990;8.346;2023-03-01T11:21:55;5.50;92.70
5055;DHT22;13829;48.990;8.346;2023-03-01T11:24:33;5.40;92.70
5055;DHT22;13829;48.990;8.346;2023-03-01T11:27:14;5.50;92.70
5055;DHT22;13829;48.990;8.346;2023-03-01T11:29:46;5.40;92.90
5055;DHT22;13829;48.990;8.346;2023-03-01T11:32:21;5.30;92.70
5055;DHT22;13829;48.990;8.346;2023-03-01T11:34:57;5.40;93.00
5055;DHT22;13829;48.990;8.346;2023-03-01T11:37:33;5.50;92.80
5055;DHT22;13829;48.990;8.346;2023-03-01T11:40:12;5.70;92.90
5055;DHT22;13829;48.990;8.346;2023-03-01T11:43:01;5.70;92.70
5055;DHT22;13829;48.990;8.346;2023-03-01T11:45:43;5.70;92.40
5055;DHT22;13829;48.990;8.346;2023-03-01T11:48:32;5.80;92.30
5055;DHT22;13829;48.990;8.346;2023-03-01T11:51:18;6.10;92.80
5055;DHT22;13829;48.990;8.346;2023-03-01T11:54:00;6.00;92.00
5055;DHT22;13829;48.990;8.346;2023-03-01T11:56:35;5.90;92.00
5055;DHT22;13829;48.990;8.346;2023-03-01T11:59:22;6.00;91.90
5055;DHT22;13829;48.990;8.346;2023-03-01T12:02:27;5.90;92.20
5055;DHT22;13829;48.990;8.346;2023-03-01T12:05:20;5.90;92.00
5055;DHT22;13829;48.990;8.346;2023-03-01T12:08:08;6.00;92.40
5055;DHT22;13829;48.990;8.346;2023-03-01T12:10:47;6.00;91.90
5055;DHT22;13829;48.990;8.346;2023-03-01T12:13:49;6.20;91.80
5055;DHT22;13829;48.990;8.346;2023-03-01T12:16:46;6.10;91.50
5055;DHT22;13829;48.990;8.346;2023-03-01T12:19:41;6.10;91.50
5055;DHT22;13829;48.990;8.346;2023-03-01T12:22:29;6.20;91.60
5055;DHT22;13829;48.990;8.346;2023-03-01T12:25:32;6.40;91.40
5055;DHT22;13829;48.990;8.346;2023-03-01T12:28:17;6.50;91.60
5055;DHT22;13829;48.990;8.346;2023-03-01T12:31:05;6.60;91.20
5055;DHT22;13829;48.990;8.346;2023-03-01T12:34:03;6.60;90.60
5055;DHT22;13829;48.990;8.346;2023-03-01T12:36:53;6.60;90.70
5055;DHT22;13829;48.990;8.346;2023-03-01T12:39:42;6.70;90.90
5055;DHT22;13829;48.990;8.346;2023-03-01T12:42:26;6.70;90.50
5055;DHT22;13829;48.990;8.346;2023-03-01T12:45:26;6.60;90.30
5055;DHT22;13829;48.990;8.346;2023-03-01T12:48:15;6.50;90.90
5055;DHT22;13829;48.990;8.346;2023-03-01T12:50:59;6.60;90.70
5055;DHT22;13829;48.990;8.346;2023-03-01T12:53:32;6.80;90.20
5055;DHT22;13829;48.990;8.346;2023-03-01T12:56:06;6.60;90.20
5055;DHT22;13829;48.990;8.346;2023-03-01T12:58:42;6.70;90.40
5055;DHT22;13829;48.990;8.346;2023-03-01T13:01:23;6.70;90.30
5055;DHT22;13829;48.990;8.346;2023-03-01T13:04:18;6.80;90.30
5055;DHT22;13829;48.990;8.346;2023-03-01T13:07:00;6.90;90.20
5055;DHT22;13829;48.990;8.346;2023-03-01T13:09:40;7.00;90.20
5055;DHT22;13829;48.990;8.346;2023-03-01T13:12:51;7.20;90.00
5055;DHT22;13829;48.990;8.346;2023-03-01T13:15:32;7.00;89.90
5055;DHT22;13829;48.990;8.346;2023-03-01T13:18:03;7.10;89.80
5055;DHT22;13829;48.990;8.346;2023-03-01T13:20:52;7.20;90.00
5055;DHT22;13829;48.990;8.346;2023-03-01T13:23:28;7.20;89.20
5055;DHT22;13829;48.990;8.346;2023-03-01T13:26:03;7.30;89.00
5055;DHT22;13829;48.990;8.346;2023-03-01T13:28:51;7.40;88.40
5055;DHT22;13829;48.990;8.346;2023-03-01T13:34:49;7.40;88.00
5055;DHT22;13829;48.990;8.346;2023-03-01T13:43:29;7.40;87.30
5055;DHT22;13829;48.990;8.346;2023-03-01T13:45:59;7.50;87.40
5055;DHT22;13829;48.990;8.346;2023-03-01T13:48:30;7.50;87.30
5055;DHT22;13829;48.990;8.346;2023-03-01T13:51:00;7.50;86.80
5055;DHT22;13829;48.990;8.346;2023-03-01T13:53:31;7.50;87.10
5055;DHT22;13829;48.990;8.346;2023-03-01T13:56:06;7.50;87.40
5055;DHT22;13829;48.990;8.346;2023-03-01T13:58:46;7.70;87.90
5055;DHT22;13829;48.990;8.346;2023-03-01T14:01:26;7.70;86.20
5055;DHT22;13829;48.990;8.346;2023-03-01T14:03:57;7.70;86.40
5055;DHT22;13829;48.990;8.346;2023-03-01T14:06:27;7.80;86.40
5055;DHT22;13829;48.990;8.346;2023-03-01T14:09:03;7.80;85.80
5055;DHT22;13829;48.990;8.346;2023-03-01T14:14:57;7.80;85.70
5055;DHT22;13829;48.990;8.346;2023-03-01T14:17:52;7.80;86.10
5055;DHT22;13829;48.990;8.346;2023-03-01T14:20:30;7.90;85.60
5055;DHT22;13829;48.990;8.346;2023-03-01T14:23:02;7.80;85.30
5055;DHT22;13829;48.990;8.346;2023-03-01T14:25:38;7.80;85.40
5055;DHT22;13829;48.990;8.346;2023-03-01T14:28:16;7.80;85.90
5055;DHT22;13829;48.990;8.346;2023-03-01T14:30:46;7.80;85.10
5055;DHT22;13829;48.990;8.346;2023-03-01T14:33:21;7.90;85.50
5055;DHT22;13829;48.990;8.346;2023-03-01T14:36:00;8.00;85.00
5055;DHT22;13829;48.990;8.346;2023-03-01T14:38:32;8.00;84.40
5055;DHT22;13829;48.990;8.346;2023-03-01T14:41:04;7.90;85.50
5055;DHT22;13829;48.990;8.346;2023-03-01T14:43:34;8.10;85.00
5055;DHT22;13829;48.990;8.346;2023-03-01T14:46:03;8.10;84.40
5055;DHT22;13829;48.990;8.346;2023-03-01T14:48:31;8.00;84.40
5055;DHT22;13829;48.990;8.346;2023-03-01T14:51:00;8.00;84.80
5055;DHT22;13829;48.990;8.346;2023-03-01T14:53:29;8.10;85.30
5055;DHT22;13829;48.990;8.346;2023-03-01T14:55:59;8.10;85.00
5055;DHT22;13829;48.990;8.346;2023-03-01T14:58:28;8.30;84.70
5055;DHT22;13829;48.990;8.346;2023-03-01T15:00:57;8.20;84.70
5055;DHT22;13829;48.990;8.346;2023-03-01T15:03:32;8.10;85.40
5055;DHT22;13829;48.990;8.346;2023-03-01T15:06:05;8.10;84.70
5055;DHT22;13829;48.990;8.346;2023-03-01T15:08:35;8.00;84.90
5055;DHT22;13829;48.990;8.346;2023-03-01T15:11:15;8.10;85.00
5055;DHT22;13829;48.990;8.346;2023-03-01T15:13:47;8.10;84.60
5055;DHT22;13829;48.990;8.346;2023-03-01T15:16:16;8.10;84.50
5055;DHT22;13829;48.990;8.346;2023-03-01T15:18:49;8.10;84.40
5055;DHT22;13829;48.990;8.346;2023-03-01T15:21:22;8.00;84.70
5055;DHT22;13829;48.990;8.346;2023-03-01T15:23:52;8.00;84.80
5055;DHT22;13829;48.990;8.346;2023-03-01T15:26:24;8.00;84.50
5055;DHT22;13829;48.990;8.346;2023-03-01T15:28:56;8.00;85.10
5055;DHT22;13829;48.990;8.346;2023-03-01T15:31:27;8.00;85.50
5055;DHT22;13829;48.990;8.346;2023-03-01T15:34:09;8.20;85.00
5055;DHT22;13829;48.990;8.346;2023-03-01T15:36:49;8.20;84.30
5055;DHT22;13829;48.990;8.346;2023-03-01T15:39:36;8.20;83.90
5055;DHT22;13829;48.990;8.346;2023-03-01T15:42:07;8.20;84.50
5055;DHT22;13829;48.990;8.346;2023-03-01T15:44:38;8.10;84.20
5055;DHT22;13829;48.990;8.346;2023-03-01T15:47:23;8.20;84.10
5055;DHT22;13829;48.990;8.346;2023-03-01T15:49:54;8.10;84.30
5055;DHT22;13829;48.990;8.346;2023-03-01T15:52:27;8.10;84.30
5055;DHT22;13829;48.990;8.346;2023-03-01T15:55:03;8.10;84.20
5055;DHT22;13829;48.990;8.346;2023-03-01T15:57:32;8.10;84.10
5055;DHT22;13829;48.990;8.346;2023-03-01T15:59:58;8.10;83.70
5055;DHT22;13829;48.990;8.346;2023-03-01T16:02:25;8.20;83.60
5055;DHT22;13829;48.990;8.346;2023-03-01T16:04:52;8.00;84.00
5055;DHT22;13829;48.990;8.346;2023-03-01T16:07:21;7.90;84.40
5055;DHT22;13829;48.990;8.346;2023-03-01T16:09:49;7.80;84.50
5055;DHT22;13829;48.990;8.346;2023-03-01T16:12:16;7.90;84.60
5055;DHT22;13829;48.990;8.346;2023-03-01T16:14:45;7.90;85.10
5055;DHT22;13829;48.990;8.346;2023-03-01T16:17:14;7.90;85.00
5055;DHT22;13829;48.990;8.346;2023-03-01T16:19:41;7.90;84.60
5055;DHT22;13829;48.990;8.346;2023-03-01T16:22:09;7.80;84.40
5055;DHT22;13829;48.990;8.346;2023-03-01T16:24:36;7.80;84.50
5055;DHT22;13829;48.990;8.346;2023-03-01T16:27:05;7.80;84.80
5055;DHT22;13829;48.990;8.346;2023-03-01T16:29:32;7.70;84.70
5055;DHT22;13829;48.990;8.346;2023-03-01T16:32:00;7.70;85.00
5055;DHT22;13829;48.990;8.346;2023-03-01T16:34:27;7.60;85.30
5055;DHT22;13829;48.990;8.346;2023-03-01T16:36:54;7.60;85.20
5055;DHT22;13829;48.990;8.346;2023-03-01T16:39:21;7.60;85.40
5055;DHT22;13829;48.990;8.346;2023-03-01T16:41:48;7.60;85.30
5055;DHT22;13829;48.990;8.346;2023-03-01T16:44:17;7.50;85.60
5055;DHT22;13829;48.990;8.346;2023-03-01T16:46:44;7.50;85.40